sensor_id;sensor_type;location;lat;lon;timestamp;temperature;humidity
47546;DHT22;50104;52.002;4.688;2022-09-09T00:01:46;17.60;77.50
47546;DHT22;50104;52.002;4.688;2022-09-09T00:17:39;17.50;78.10
47546;DHT22;50104;52.002;4.688;2022-09-09T00:23:11;17.40;78.10
47546;DHT22;50104;52.002;4.688;2022-09-09T00:28:21;17.30;78.60
47546;DHT22;50104;52.002;4.688;2022-09-09T00:33:24;17.30;78.50
47546;DHT22;50104;52.002;4.688;2022-09-09T00:44:16;17.20;78.10
47546;DHT22;50104;52.002;4.688;2022-09-09T00:55:25;17.00;78.30
47546;DHT22;50104;52.002;4.688;2022-09-09T01:00:50;17.00;78.70
47546;DHT22;50104;52.002;4.688;2022-09-09T01:10:58;16.80;78.80
47546;DHT22;50104;52.002;4.688;2022-09-09T01:16:02;16.80;79.10
47546;DHT22;50104;52.002;4.688;2022-09-09T01:26:32;16.70;79.40
47546;DHT22;50104;52.002;4.688;2022-09-09T01:31:58;16.60;79.20
47546;DHT22;50104;52.002;4.688;2022-09-09T01:37:07;16.60;79.50
47546;DHT22;50104;52.002;4.688;2022-09-09T01:42:14;16.50;79.60
47546;DHT22;50104;52.002;4.688;2022-09-09T01:47:16;16.50;79.90
47546;DHT22;50104;52.002;4.688;2022-09-09T01:52:18;16.50;80.10
47546;DHT22;50104;52.002;4.688;2022-09-09T01:57:25;16.50;80.20
47546;DHT22;50104;52.002;4.688;2022-09-09T02:02:36;16.50;80.00
47546;DHT22;50104;52.002;4.688;2022-09-09T02:07:44;16.50;79.80
47546;DHT22;50104;52.002;4.688;2022-09-09T02:12:55;16.50;79.80
47546;DHT22;50104;52.002;4.688;2022-09-09T02:18:10;16.50;79.90
47546;DHT22;50104;52.002;4.688;2022-09-09T02:23:15;16.40;80.00
47546;DHT22;50104;52.002;4.688;2022-09-09T02:28:17;16.40;80.10
47546;DHT22;50104;52.002;4.688;2022-09-09T02:33:19;16.40;80.10
47546;DHT22;50104;52.002;4.688;2022-09-09T02:38:21;16.40;80.00
47546;DHT22;50104;52.002;4.688;2022-09-09T02:43:31;16.40;80.10
47546;DHT22;50104;52.002;4.688;2022-09-09T02:48:54;16.30;80.20
47546;DHT22;50104;52.002;4.688;2022-09-09T02:54:10;16.30;80.20
47546;DHT22;50104;52.002;4.688;2022-09-09T02:59:31;16.30;80.10
47546;DHT22;50104;52.002;4.688;2022-09-09T03:04:32;16.20;80.00
47546;DHT22;50104;52.002;4.688;2022-09-09T03:09:33;16.20;80.20
47546;DHT22;50104;52.002;4.688;2022-09-09T03:14:34;16.20;80.20
47546;DHT22;50104;52.002;4.688;2022-09-09T03:19:35;16.10;80.30
47546;DHT22;50104;52.002;4.688;2022-09-09T03:24:36;16.10;80.30
47546;DHT22;50104;52.002;4.688;2022-09-09T03:29:37;16.10;80.40
47546;DHT22;50104;52.002;4.688;2022-09-09T03:34:38;16.10;80.40
47546;DHT22;50104;52.002;4.688;2022-09-09T03:39:42;16.00;80.40
47546;DHT22;50104;52.002;4.688;2022-09-09T03:44:43;16.00;80.40
47546;DHT22;50104;52.002;4.688;2022-09-09T03:49:46;16.00;80.30
47546;DHT22;50104;52.002;4.688;2022-09-09T03:54:48;15.90;80.40
47546;DHT22;50104;52.002;4.688;2022-09-09T03:59:49;15.90;80.50
47546;DHT22;50104;52.002;4.688;2022-09-09T04:04:50;15.90;80.60
47546;DHT22;50104;52.002;4.688;2022-09-09T04:09:50;15.80;80.60
47546;DHT22;50104;52.002;4.688;2022-09-09T04:14:51;15.80;80.60
47546;DHT22;50104;52.002;4.688;2022-09-09T04:19:52;15.80;80.60
47546;DHT22;50104;52.002;4.688;2022-09-09T04:24:53;15.70;80.60
47546;DHT22;50104;52.002;4.688;2022-09-09T04:29:54;15.70;80.90
47546;DHT22;50104;52.002;4.688;2022-09-09T04:34:57;15.70;80.80
47546;DHT22;50104;52.002;4.688;2022-09-09T04:39:57;15.70;80.80
47546;DHT22;50104;52.002;4.688;2022-09-09T04:45:03;15.60;80.90
47546;DHT22;50104;52.002;4.688;2022-09-09T04:50:04;15.60;80.90
47546;DHT22;50104;52.002;4.688;2022-09-09T04:55:06;15.60;81.10
47546;DHT22;50104;52.002;4.688;2022-09-09T05:00:08;15.60;81.20
47546;DHT22;50104;52.002;4.688;2022-09-09T05:05:10;15.60;81.30
47546;DHT22;50104;52.002;4.688;2022-09-09T05:10:11;15.50;81.50
47546;DHT22;50104;52.002;4.688;2022-09-09T05:15:14;15.50;81.60
47546;DHT22;50104;52.002;4.688;2022-09-09T05:20:15;15.50;81.70
47546;DHT22;50104;52.002;4.688;2022-09-09T05:25:16;15.50;81.80
47546;DHT22;50104;52.002;4.688;2022-09-09T05:30:16;15.50;81.90
47546;DHT22;50104;52.002;4.688;2022-09-09T05:35:19;15.50;82.00
47546;DHT22;50104;52.002;4.688;2022-09-09T05:40:21;15.50;82.10
47546;DHT22;50104;52.002;4.688;2022-09-09T05:45:22;15.60;82.10
47546;DHT22;50104;52.002;4.688;2022-09-09T05:50:22;15.60;82.20
47546;DHT22;50104;52.002;4.688;2022-09-09T05:55:23;15.60;82.50
47546;DHT22;50104;52.002;4.688;2022-09-09T06:00:26;15.60;83.10
47546;DHT22;50104;52.002;4.688;2022-09-09T06:05:26;15.70;83.50
47546;DHT22;50104;52.002;4.688;2022-09-09T06:10:28;15.80;83.70
47546;DHT22;50104;52.002;4.688;2022-09-09T06:15:29;15.90;84.00
47546;DHT22;50104;52.002;4.688;2022-09-09T06:20:31;16.00;84.20
47546;DHT22;50104;52.002;4.688;2022-09-09T06:25:32;16.10;84.50
47546;DHT22;50104;52.002;4.688;2022-09-09T06:30:34;16.20;84.10
47546;DHT22;50104;52.002;4.688;2022-09-09T06:35:36;16.40;83.90
47546;DHT22;50104;52.002;4.688;2022-09-09T06:40:37;16.50;83.80
47546;DHT22;50104;52.002;4.688;2022-09-09T06:45:38;16.60;83.70
47546;DHT22;50104;52.002;4.688;2022-09-09T06:50:39;16.60;84.00
47546;DHT22;50104;52.002;4.688;2022-09-09T06:55:39;16.80;83.90
47546;DHT22;50104;52.002;4.688;2022-09-09T07:00:43;16.80;83.80
47546;DHT22;50104;52.002;4.688;2022-09-09T07:06:06;16.90;83.50
47546;DHT22;50104;52.002;4.688;2022-09-09T07:11:08;17.10;83.50
47546;DHT22;50104;52.002;4.688;2022-09-09T07:16:11;17.10;83.20
47546;DHT22;50104;52.002;4.688;2022-09-09T07:21:14;17.20;83.00
47546;DHT22;50104;52.002;4.688;2022-09-09T07:26:17;17.30;82.90
47546;DHT22;50104;52.002;4.688;2022-09-09T07:31:25;17.40;83.10
47546;DHT22;50104;52.002;4.688;2022-09-09T07:36:30;17.50;83.10
47546;DHT22;50104;52.002;4.688;2022-09-09T07:41:40;17.60;82.90
47546;DHT22;50104;52.002;4.688;2022-09-09T07:46:43;17.70;82.50
47546;DHT22;50104;52.002;4.688;2022-09-09T07:51:46;17.80;82.30
47546;DHT22;50104;52.002;4.688;2022-09-09T07:56:48;17.90;82.10
47546;DHT22;50104;52.002;4.688;2022-09-09T08:01:51;18.00;81.60
47546;DHT22;50104;52.002;4.688;2022-09-09T08:06:57;18.10;80.90
47546;DHT22;50104;52.002;4.688;2022-09-09T08:11:59;18.10;80.70
47546;DHT22;50104;52.002;4.688;2022-09-09T08:17:01;18.10;80.30
47546;DHT22;50104;52.002;4.688;2022-09-09T08:22:02;18.20;80.20
47546;DHT22;50104;52.002;4.688;2022-09-09T08:27:03;18.20;80.00
47546;DHT22;50104;52.002;4.688;2022-09-09T08:32:04;18.20;80.00
47546;DHT22;50104;52.002;4.688;2022-09-09T08:37:05;18.20;80.00
47546;DHT22;50104;52.002;4.688;2022-09-09T08:42:34;18.20;80.20
47546;DHT22;50104;52.002;4.688;2022-09-09T08:48:02;18.30;80.20
47546;DHT22;50104;52.002;4.688;2022-09-09T08:53:22;18.30;80.20
47546;DHT22;50104;52.002;4.688;2022-09-09T08:58:30;18.30;80.10
47546;DHT22;50104;52.002;4.688;2022-09-09T09:09:01;18.40;79.70
47546;DHT22;50104;52.002;4.688;2022-09-09T09:14:24;18.40;79.60
47546;DHT22;50104;52.002;4.688;2022-09-09T09:19:27;18.40;79.80
47546;DHT22;50104;52.002;4.688;2022-09-09T09:29:37;18.40;79.90
47546;DHT22;50104;52.002;4.688;2022-09-09T09:34:38;18.30;80.00
47546;DHT22;50104;52.002;4.688;2022-09-09T09:39:39;18.30;80.30
47546;DHT22;50104;52.002;4.688;2022-09-09T09:44:41;18.30;80.70
47546;DHT22;50104;52.002;4.688;2022-09-09T09:49:59;18.30;80.90
47546;DHT22;50104;52.002;4.688;2022-09-09T09:55:03;18.30;81.10
47546;DHT22;50104;52.002;4.688;2022-09-09T10:00:22;18.30;81.30
47546;DHT22;50104;52.002;4.688;2022-09-09T10:05:26;18.40;81.50
47546;DHT22;50104;52.002;4.688;2022-09-09T10:33:33;19.10;82.20
47546;DHT22;50104;52.002;4.688;2022-09-09T10:59:49;19.50;79.80
47546;DHT22;50104;52.002;4.688;2022-09-09T11:05:18;19.60;79.80
47546;DHT22;50104;52.002;4.688;2022-09-09T11:10:38;19.60;79.50
47546;DHT22;50104;52.002;4.688;2022-09-09T11:15:45;19.60;79.70
47546;DHT22;50104;52.002;4.688;2022-09-09T11:20:57;19.60;80.20
47546;DHT22;50104;52.002;4.688;2022-09-09T11:26:03;19.70;80.50
47546;DHT22;50104;52.002;4.688;2022-09-09T11:31:53;19.80;80.70
47546;DHT22;50104;52.002;4.688;2022-09-09T11:43:04;20.10;80.00
47546;DHT22;50104;52.002;4.688;2022-09-09T11:48:38;20.20;79.80
47546;DHT22;50104;52.002;4.688;2022-09-09T11:54:00;20.40;79.60
47546;DHT22;50104;52.002;4.688;2022-09-09T11:59:23;20.40;79.00
47546;DHT22;50104;52.002;4.688;2022-09-09T12:25:58;20.30;78.80
47546;DHT22;50104;52.002;4.688;2022-09-09T12:36:26;20.20;79.10
47546;DHT22;50104;52.002;4.688;2022-09-09T12:41:29;20.10;79.10
47546;DHT22;50104;52.002;4.688;2022-09-09T12:46:39;20.00;79.40
47546;DHT22;50104;52.002;4.688;2022-09-09T12:51:45;19.90;80.00
47546;DHT22;50104;52.002;4.688;2022-09-09T12:56:48;19.80;80.70
47546;DHT22;50104;52.002;4.688;2022-09-09T13:01:56;19.70;81.20
47546;DHT22;50104;52.002;4.688;2022-09-09T13:07:07;19.60;81.40
47546;DHT22;50104;52.002;4.688;2022-09-09T13:12:21;19.60;81.30
47546;DHT22;50104;52.002;4.688;2022-09-09T13:17:27;19.60;81.30
47546;DHT22;50104;52.002;4.688;2022-09-09T13:22:34;19.60;81.30
47546;DHT22;50104;52.002;4.688;2022-09-09T13:27:41;19.60;81.40
47546;DHT22;50104;52.002;4.688;2022-09-09T13:38:15;19.50;81.50
47546;DHT22;50104;52.002;4.688;2022-09-09T13:43:21;19.50;81.90
47546;DHT22;50104;52.002;4.688;2022-09-09T13:48:23;19.60;83.00
47546;DHT22;50104;52.002;4.688;2022-09-09T13:53:25;19.60;83.70
47546;DHT22;50104;52.002;4.688;2022-09-09T13:58:26;19.70;84.10
47546;DHT22;50104;52.002;4.688;2022-09-09T14:03:27;19.90;83.80
47546;DHT22;50104;52.002;4.688;2022-09-09T14:08:28;20.00;83.00
47546;DHT22;50104;52.002;4.688;2022-09-09T14:13:37;20.10;81.80
47546;DHT22;50104;52.002;4.688;2022-09-09T14:18:38;20.10;81.10
47546;DHT22;50104;52.002;4.688;2022-09-09T14:23:39;20.10;80.50
47546;DHT22;50104;52.002;4.688;2022-09-09T14:28:41;20.00;80.50
47546;DHT22;50104;52.002;4.688;2022-09-09T14:33:41;19.90;80.70
47546;DHT22;50104;52.002;4.688;2022-09-09T14:38:42;19.80;81.40
47546;DHT22;50104;52.002;4.688;2022-09-09T14:43:44;19.70;81.70
47546;DHT22;50104;52.002;4.688;2022-09-09T14:48:46;19.60;82.20
47546;DHT22;50104;52.002;4.688;2022-09-09T14:53:51;19.50;82.40
47546;DHT22;50104;52.002;4.688;2022-09-09T14:58:54;19.50;83.10
47546;DHT22;50104;52.002;4.688;2022-09-09T15:03:59;19.50;83.40
47546;DHT22;50104;52.002;4.688;2022-09-09T15:09:00;19.50;83.90
47546;DHT22;50104;52.002;4.688;2022-09-09T15:14:01;19.60;84.60
47546;DHT22;50104;52.002;4.688;2022-09-09T15:19:03;19.70;85.20
47546;DHT22;50104;52.002;4.688;2022-09-09T15:24:04;19.80;85.50
47546;DHT22;50104;52.002;4.688;2022-09-09T15:29:08;20.00;85.50
47546;DHT22;50104;52.002;4.688;2022-09-09T15:34:09;20.30;85.90
47546;DHT22;50104;52.002;4.688;2022-09-09T15:39:12;20.50;85.40
47546;DHT22;50104;52.002;4.688;2022-09-09T15:44:16;20.80;84.30
47546;DHT22;50104;52.002;4.688;2022-09-09T15:49:22;21.00;83.10
47546;DHT22;50104;52.002;4.688;2022-09-09T15:54:26;21.20;82.00
47546;DHT22;50104;52.002;4.688;2022-09-09T15:59:28;21.40;80.90
47546;DHT22;50104;52.002;4.688;2022-09-09T16:04:30;21.40;79.80
47546;DHT22;50104;52.002;4.688;2022-09-09T16:09:31;21.40;79.30
47546;DHT22;50104;52.002;4.688;2022-09-09T16:14:33;21.40;78.80
47546;DHT22;50104;52.002;4.688;2022-09-09T16:19:36;21.40;78.40
47546;DHT22;50104;52.002;4.688;2022-09-09T16:24:37;21.30;78.10
47546;DHT22;50104;52.002;4.688;2022-09-09T16:29:37;21.30;78.30
47546;DHT22;50104;52.002;4.688;2022-09-09T16:34:38;21.20;78.00
47546;DHT22;50104;52.002;4.688;2022-09-09T16:39:39;21.10;78.40
47546;DHT22;50104;52.002;4.688;2022-09-09T16:44:40;21.00;79.00
47546;DHT22;50104;52.002;4.688;2022-09-09T16:49:41;20.90;79.40
47546;DHT22;50104;52.002;4.688;2022-09-09T16:54:42;20.80;79.60
47546;DHT22;50104;52.002;4.688;2022-09-09T16:59:43;20.70;79.90
47546;DHT22;50104;52.002;4.688;2022-09-09T17:04:44;20.70;80.10
47546;DHT22;50104;52.002;4.688;2022-09-09T17:09:45;20.60;80.20
47546;DHT22;50104;52.002;4.688;2022-09-09T17:14:46;20.50;80.20
47546;DHT22;50104;52.002;4.688;2022-09-09T17:19:47;20.40;79.80
47546;DHT22;50104;52.002;4.688;2022-09-09T17:24:47;20.30;79.90
47546;DHT22;50104;52.002;4.688;2022-09-09T17:29:48;20.30;80.00
47546;DHT22;50104;52.002;4.688;2022-09-09T17:34:49;20.20;79.80
47546;DHT22;50104;52.002;4.688;2022-09-09T17:39:50;20.10;80.00
47546;DHT22;50104;52.002;4.688;2022-09-09T17:44:51;20.00;80.10
47546;DHT22;50104;52.002;4.688;2022-09-09T17:49:52;19.90;80.40
47546;DHT22;50104;52.002;4.688;2022-09-09T17:54:53;19.80;80.30
47546;DHT22;50104;52.002;4.688;2022-09-09T17:59:57;19.70;80.20
47546;DHT22;50104;52.002;4.688;2022-09-09T18:04:58;19.60;80.60
47546;DHT22;50104;52.002;4.688;2022-09-09T18:09:59;19.60;81.10
47546;DHT22;50104;52.002;4.688;2022-09-09T18:15:00;19.50;81.40
47546;DHT22;50104;52.002;4.688;2022-09-09T18:20:02;19.40;81.50
47546;DHT22;50104;52.002;4.688;2022-09-09T18:25:03;19.30;81.60
47546;DHT22;50104;52.002;4.688;2022-09-09T18:30:05;19.20;81.60
47546;DHT22;50104;52.002;4.688;2022-09-09T18:35:06;19.20;81.70
47546;DHT22;50104;52.002;4.688;2022-09-09T18:40:07;19.10;81.90
47546;DHT22;50104;52.002;4.688;2022-09-09T18:45:08;19.10;81.80
47546;DHT22;50104;52.002;4.688;2022-09-09T18:50:09;19.00;81.80
47546;DHT22;50104;52.002;4.688;2022-09-09T18:55:11;18.90;81.80
47546;DHT22;50104;52.002;4.688;2022-09-09T19:00:12;18.80;81.70
47546;DHT22;50104;52.002;4.688;2022-09-09T19:11:24;18.70;81.90
47546;DHT22;50104;52.002;4.688;2022-09-09T19:16:31;18.70;82.00
47546;DHT22;50104;52.002;4.688;2022-09-09T19:21:35;18.60;82.30
47546;DHT22;50104;52.002;4.688;2022-09-09T19:26:39;18.60;82.30
47546;DHT22;50104;52.002;4.688;2022-09-09T19:31:43;18.60;82.30
47546;DHT22;50104;52.002;4.688;2022-09-09T19:36:45;18.60;82.20
47546;DHT22;50104;52.002;4.688;2022-09-09T19:41:47;18.50;82.20
47546;DHT22;50104;52.002;4.688;2022-09-09T19:46:48;18.50;82.40
47546;DHT22;50104;52.002;4.688;2022-09-09T19:51:49;18.50;82.60
47546;DHT22;50104;52.002;4.688;2022-09-09T19:56:50;18.40;82.90
47546;DHT22;50104;52.002;4.688;2022-09-09T20:01:51;18.40;83.20
47546;DHT22;50104;52.002;4.688;2022-09-09T20:06:52;18.40;83.40
47546;DHT22;50104;52.002;4.688;2022-09-09T20:11:53;18.30;83.60
47546;DHT22;50104;52.002;4.688;2022-09-09T20:16:54;18.30;83.60
47546;DHT22;50104;52.002;4.688;2022-09-09T20:21:55;18.30;83.60
47546;DHT22;50104;52.002;4.688;2022-09-09T20:26:58;18.30;83.60
47546;DHT22;50104;52.002;4.688;2022-09-09T20:31:59;18.20;83.40
47546;DHT22;50104;52.002;4.688;2022-09-09T20:37:00;18.20;83.40
47546;DHT22;50104;52.002;4.688;2022-09-09T20:42:03;18.20;83.20
47546;DHT22;50104;52.002;4.688;2022-09-09T20:47:04;18.10;83.10
47546;DHT22;50104;52.002;4.688;2022-09-09T20:52:06;18.10;83.10
47546;DHT22;50104;52.002;4.688;2022-09-09T20:57:07;18.10;83.40
47546;DHT22;50104;52.002;4.688;2022-09-09T21:02:08;18.10;83.80
47546;DHT22;50104;52.002;4.688;2022-09-09T21:07:10;18.10;84.00
47546;DHT22;50104;52.002;4.688;2022-09-09T21:12:11;18.00;84.10
47546;DHT22;50104;52.002;4.688;2022-09-09T21:17:12;18.00;84.10
47546;DHT22;50104;52.002;4.688;2022-09-09T21:22:12;18.00;84.20
47546;DHT22;50104;52.002;4.688;2022-09-09T21:27:13;18.00;83.90
47546;DHT22;50104;52.002;4.688;2022-09-09T21:32:14;18.00;83.90
47546;DHT22;50104;52.002;4.688;2022-09-09T21:37:16;17.90;83.80
47546;DHT22;50104;52.002;4.688;2022-09-09T21:42:16;17.90;83.60
47546;DHT22;50104;52.002;4.688;2022-09-09T21:47:17;17.80;83.70
47546;DHT22;50104;52.002;4.688;2022-09-09T21:52:18;17.80;83.50
47546;DHT22;50104;52.002;4.688;2022-09-09T21:57:20;17.70;83.70
47546;DHT22;50104;52.002;4.688;2022-09-09T22:02:21;17.60;84.20
47546;DHT22;50104;52.002;4.688;2022-09-09T22:07:31;17.60;84.50
47546;DHT22;50104;52.002;4.688;2022-09-09T22:12:52;17.60;85.00
47546;DHT22;50104;52.002;4.688;2022-09-09T22:18:02;17.60;85.40
47546;DHT22;50104;52.002;4.688;2022-09-09T22:23:03;17.60;85.40
47546;DHT22;50104;52.002;4.688;2022-09-09T22:28:19;17.60;85.50
47546;DHT22;50104;52.002;4.688;2022-09-09T22:33:31;17.60;85.70
47546;DHT22;50104;52.002;4.688;2022-09-09T22:38:42;17.60;85.90
47546;DHT22;50104;52.002;4.688;2022-09-09T22:43:46;17.60;85.70
47546;DHT22;50104;52.002;4.688;2022-09-09T22:48:48;17.60;86.00
47546;DHT22;50104;52.002;4.688;2022-09-09T22:53:49;17.70;86.20
47546;DHT22;50104;52.002;4.688;2022-09-09T22:58:53;17.70;86.40
47546;DHT22;50104;52.002;4.688;2022-09-09T23:03:58;17.70;86.60
47546;DHT22;50104;52.002;4.688;2022-09-09T23:09:00;17.70;86.50
47546;DHT22;50104;52.002;4.688;2022-09-09T23:14:04;17.70;86.80
47546;DHT22;50104;52.002;4.688;2022-09-09T23:19:07;17.70;86.80
47546;DHT22;50104;52.002;4.688;2022-09-09T23:24:15;17.70;86.80
47546;DHT22;50104;52.002;4.688;2022-09-09T23:29:17;17.70;86.70
47546;DHT22;50104;52.002;4.688;2022-09-09T23:34:18;17.70;86.70
47546;DHT22;50104;52.002;4.688;2022-09-09T23:39:19;17.70;86.90
47546;DHT22;50104;52.002;4.688;2022-09-09T23:44:20;17.70;86.80
47546;DHT22;50104;52.002;4.688;2022-09-09T23:49:21;17.70;86.80
47546;DHT22;50104;52.002;4.688;2022-09-09T23:54:22;17.70;86.80
47546;DHT22;50104;52.002;4.688;2022-09-09T23:59:24;17.70;86.80
